Time;durP1;ratioP1;P1;durP2;ratioP2;P2;SDS_P1;SDS_P2;PMS_P1;PMS_P2;Temp;Humidity;BMP_temperature;BMP_pressure;BME280_temperature;BME280_humidity;BME280_pressure;Samples;Min_cycle;Max_cycle;Signal;HPM_P1;HPM_P2
2021/04/14 00:00:10;;;;;;;;;;;;;;;17.65;31.14;101255.94;4416939;32;19977;-51
2021/04/14 00:02:36;;;;;;;;;;;;;;;17.71;30.97;101257.91;4417881;32;19949;-53
2021/04/14 00:05:01;;;;;;;;;;;;;;;17.68;31.05;101261.31;4417602;32;19950;-52
2021/04/14 00:07:27;;;;;;;;;;;;;;;17.61;31.13;101259.31;4416415;32;20673;-53
2021/04/14 00:09:53;;;;;;;;;;;;;;;17.55;31.24;101257.34;4417589;32;19950;-53
2021/04/14 00:12:19;;;;;;;;;;;;;;;17.41;31.45;101256.78;4417318;32;19946;-51
2021/04/14 00:14:45;;;;;;;;;;;;;;;17.54;31.35;101267.81;4417588;32;20325;-52
2021/04/14 00:17:11;;;;;;;;;;;;;;;17.61;31.15;101254.03;4415914;32;19949;-50
2021/04/14 00:19:37;;;;;;;;;;;;;;;17.64;31.06;101253.22;4417467;32;20382;-52
2021/04/14 00:22:03;;;;;;;;;;;;;;;17.55;31.31;101253.78;4416640;32;20941;-49
2021/04/14 00:24:31;;;;;;;;;;;;;;;17.59;31.20;101255.69;4416359;32;19954;-52
2021/04/14 00:26:57;;;;;;;;;;;;;;;17.61;31.14;101247.84;4415687;32;19982;-51
2021/04/14 00:29:23;;;;;;;;;;;;;;;17.56;31.23;101245.03;4417288;32;20048;-52
2021/04/14 00:31:48;;;;;;;;;;;;;;;17.52;31.26;101248.41;4417173;32;19988;-51
2021/04/14 00:34:15;;;;;;;;;;;;;;;17.53;31.23;101247.56;4417259;32;20310;-51
2021/04/14 00:36:42;;;;;;;;;;;;;;;17.55;31.17;101243.25;4414659;32;19954;-53
2021/04/14 00:39:08;;;;;;;;;;;;;;;17.61;31.10;101240.87;4401513;32;19981;-52
2021/04/14 00:41:34;;;;;;;;;;;;;;;17.62;31.04;101244.38;4402898;32;20340;-51
2021/04/14 00:44:01;;;;;;;;;;;;;;;17.60;31.09;101246.97;4417665;32;19970;-53
2021/04/14 00:46:27;;;;;;;;;;;;;;;17.63;31.00;101241.81;4416340;32;19964;-53
2021/04/14 00:48:53;;;;;;;;;;;;;;;17.59;31.15;101245.16;4416697;32;19957;-53
2021/04/14 00:51:19;;;;;;;;;;;;;;;17.57;31.15;101238.94;4415942;32;19942;-54
2021/04/14 00:53:45;;;;;;;;;;;;;;;17.54;31.11;101241.47;4416528;32;19958;-48
2021/04/14 00:56:12;;;;;;;;;;;;;;;17.51;31.17;101241.34;4415529;32;20367;-52
2021/04/14 00:58:37;;;;;;;;;;;;;;;17.59;31.05;101239.88;4414725;32;20696;-49
2021/04/14 01:01:03;;;;;;;;;;;;;;;17.56;31.09;101239.78;4415393;32;19954;-52
2021/04/14 01:03:32;;;;;;;;;;;;;;;17.54;31.13;101242.38;4415676;32;19962;-50
2021/04/14 01:05:58;;;;;;;;;;;;;;;17.61;30.97;101235.59;4414871;32;19950;-52
2021/04/14 01:08:24;;;;;;;;;;;;;;;17.48;31.22;101239.50;4416215;32;19965;-52
2021/04/14 01:10:50;;;;;;;;;;;;;;;17.51;31.12;101238.72;4417167;32;19954;-49
2021/04/14 01:13:15;;;;;;;;;;;;;;;17.47;31.18;101229.78;4416670;32;19946;-53
2021/04/14 01:15:41;;;;;;;;;;;;;;;17.58;31.01;101238.09;4416340;32;19969;-50
2021/04/14 01:18:07;;;;;;;;;;;;;;;17.54;31.05;101230.94;4415885;32;20012;-49
2021/04/14 01:20:33;;;;;;;;;;;;;;;17.59;31.03;101228.47;4417708;32;19962;-52
2021/04/14 01:22:59;;;;;;;;;;;;;;;17.48;31.16;101231.59;4416394;32;19967;-51
2021/04/14 01:25:25;;;;;;;;;;;;;;;17.54;31.01;101228.28;4416539;32;20006;-53
2021/04/14 01:27:51;;;;;;;;;;;;;;;17.65;30.82;101228.69;4416083;32;20373;-51
2021/04/14 01:30:17;;;;;;;;;;;;;;;17.53;31.04;101234.41;4418584;32;19997;-52
2021/04/14 01:32:43;;;;;;;;;;;;;;;17.51;31.09;101231.69;4420094;32;20628;-53
2021/04/14 01:35:08;;;;;;;;;;;;;;;17.39;31.20;101229.50;4419616;32;19954;-51
2021/04/14 01:37:34;;;;;;;;;;;;;;;17.43;31.14;101230.53;4416332;32;20001;-51
2021/04/14 01:40:00;;;;;;;;;;;;;;;17.37;31.20;101231.19;4403076;32;19991;-52
2021/04/14 01:42:26;;;;;;;;;;;;;;;17.28;31.46;101222.94;4404393;32;20298;-52
2021/04/14 01:44:52;;;;;;;;;;;;;;;17.26;31.43;101229.87;4419499;32;19977;-53
2021/04/14 01:47:18;;;;;;;;;;;;;;;17.42;31.19;101226.09;4418879;32;19950;-51
2021/04/14 01:49:44;;;;;;;;;;;;;;;17.56;30.98;101234.50;4419605;32;19961;-50
2021/04/14 01:52:10;;;;;;;;;;;;;;;17.49;31.03;101232.50;4418711;32;19946;-52
2021/04/14 01:54:35;;;;;;;;;;;;;;;17.40;31.15;101227.75;4419644;32;19954;-52
2021/04/14 01:57:01;;;;;;;;;;;;;;;17.32;31.31;101224.84;4419076;32;19938;-52
2021/04/14 01:59:27;;;;;;;;;;;;;;;17.49;31.03;101224.59;4418335;32;19954;-50
2021/04/14 02:01:53;;;;;;;;;;;;;;;17.41;31.20;101230.47;4418450;32;19951;-51
2021/04/14 02:04:19;;;;;;;;;;;;;;;17.36;31.24;101232.03;4419174;32;19958;-53
2021/04/14 02:06:45;;;;;;;;;;;;;;;17.45;31.09;101227.94;4419682;32;19950;-52
2021/04/14 02:09:11;;;;;;;;;;;;;;;17.48;30.97;101230.72;4417553;32;20318;-52
2021/04/14 02:11:37;;;;;;;;;;;;;;;17.50;30.98;101234.28;4418338;32;20306;-51
2021/04/14 02:14:03;;;;;;;;;;;;;;;17.39;31.12;101226.87;4416074;32;19954;-49
2021/04/14 02:16:29;;;;;;;;;;;;;;;17.40;31.13;101223.41;4418722;32;19954;-51
2021/04/14 02:18:55;;;;;;;;;;;;;;;17.28;31.29;101230.84;4418665;32;20000;-52
2021/04/14 02:21:20;;;;;;;;;;;;;;;17.28;31.30;101222.94;4418326;32;20005;-50
2021/04/14 02:23:46;;;;;;;;;;;;;;;17.29;31.23;101222.09;4418027;32;19990;-50
2021/04/14 02:26:12;;;;;;;;;;;;;;;17.26;31.27;101224.63;4418965;32;19990;-53
2021/04/14 02:28:39;;;;;;;;;;;;;;;17.31;31.20;101217.78;4415766;32;19966;-51
2021/04/14 02:31:05;;;;;;;;;;;;;;;17.32;31.16;101218.69;4403554;32;20587;-52
2021/04/14 02:33:30;;;;;;;;;;;;;;;17.31;31.16;101217.78;4404844;32;19964;-53
2021/04/14 02:35:56;;;;;;;;;;;;;;;17.30;31.20;101216.00;4419270;32;20306;-51
2021/04/14 02:38:22;;;;;;;;;;;;;;;17.29;31.21;101219.47;4417866;32;22017;-51
2021/04/14 02:40:48;;;;;;;;;;;;;;;17.31;31.16;101217.78;4418073;32;20313;-50
2021/04/14 02:43:14;;;;;;;;;;;;;;;17.32;31.14;101214.31;4419157;32;19950;-53
2021/04/14 02:45:40;;;;;;;;;;;;;;;17.28;31.25;101215.94;4418475;32;20347;-49
2021/04/14 02:48:06;;;;;;;;;;;;;;;17.29;31.16;101203.66;4418319;32;20312;-53
2021/04/14 02:50:32;;;;;;;;;;;;;;;17.27;31.22;101210.63;4419025;32;20347;-53
2021/04/14 02:52:58;;;;;;;;;;;;;;;17.26;31.27;101211.44;4418590;32;19961;-53
2021/04/14 02:55:24;;;;;;;;;;;;;;;17.26;31.23;101199.16;4417724;32;19957;-52
2021/04/14 02:57:49;;;;;;;;;;;;;;;17.30;31.16;101205.47;4417981;32;19958;-50
2021/04/14 03:00:15;;;;;;;;;;;;;;;17.27;31.20;101203.59;4416582;32;20035;-53
2021/04/14 03:02:41;;;;;;;;;;;;;;;17.22;31.32;101196.34;4417776;32;19984;-53
2021/04/14 03:05:07;;;;;;;;;;;;;;;17.08;31.50;101199.34;4409693;32;20371;-51
2021/04/14 03:07:33;;;;;;;;;;;;;;;17.04;31.56;101197.44;4402862;32;20010;-49
2021/04/14 03:09:59;;;;;;;;;;;;;;;17.09;31.52;101190.63;4410287;32;19950;-53
2021/04/14 03:12:25;;;;;;;;;;;;;;;17.04;31.56;101191.28;4418287;32;19953;-53
2021/04/14 03:14:51;;;;;;;;;;;;;;;17.13;31.38;101195.19;4417781;32;19954;-52
2021/04/14 03:17:17;;;;;;;;;;;;;;;17.26;31.21;101193.03;4416369;32;19985;-47
2021/04/14 03:19:43;;;;;;;;;;;;;;;17.22;31.24;101196.34;4418340;32;19958;-54
2021/04/14 03:22:09;;;;;;;;;;;;;;;17.20;31.32;101192.78;4418660;32;19974;-50
2021/04/14 03:24:35;;;;;;;;;;;;;;;17.07;31.49;101191.41;4417756;32;19965;-53
2021/04/14 03:27:01;;;;;;;;;;;;;;;17.17;31.32;101188.31;4417377;32;20288;-51
2021/04/14 03:29:26;;;;;;;;;;;;;;;17.29;31.09;101195.75;4418617;32;19987;-53
2021/04/14 03:31:52;;;;;;;;;;;;;;;17.26;31.22;101199.16;4416427;32;19962;-51
2021/04/14 03:34:18;;;;;;;;;;;;;;;17.24;31.23;101189.44;4416966;32;19938;-50
2021/04/14 03:36:44;;;;;;;;;;;;;;;17.16;31.31;101193.50;4402616;32;19993;-50
2021/04/14 03:39:10;;;;;;;;;;;;;;;17.10;31.46;101188.91;4401729;32;19951;-48
2021/04/14 03:41:36;;;;;;;;;;;;;;;17.18;31.34;101194.44;4416088;32;19938;-52
2021/04/14 03:44:02;;;;;;;;;;;;;;;17.22;31.26;101196.34;4417422;32;19954;-51
2021/04/14 03:46:28;;;;;;;;;;;;;;;17.22;31.26;101196.34;4417766;32;20016;-49
2021/04/14 03:48:54;;;;;;;;;;;;;;;17.12;31.36;101189.84;4418044;32;19957;-54
2021/04/14 03:51:20;;;;;;;;;;;;;;;17.23;31.22;101192.91;4417683;32;20376;-52
2021/04/14 03:53:46;;;;;;;;;;;;;;;17.20;31.29;101192.78;4416850;32;19957;-53
2021/04/14 03:56:12;;;;;;;;;;;;;;;17.11;31.40;101196.88;4416272;32;19946;-53
2021/04/14 03:58:37;;;;;;;;;;;;;;;17.18;31.36;101189.19;4415773;32;20015;-53
2021/04/14 04:01:03;;;;;;;;;;;;;;;17.27;31.18;101197.44;4415861;32;19961;-50
2021/04/14 04:03:29;;;;;;;;;;;;;;;17.25;31.24;101199.13;4417006;32;20397;-51
2021/04/14 04:05:56;;;;;;;;;;;;;;;17.16;31.30;101193.50;4418537;32;19954;-52
2021/04/14 04:08:22;;;;;;;;;;;;;;;17.20;31.23;101192.78;4417047;32;19981;-50
2021/04/14 04:10:48;;;;;;;;;;;;;;;17.24;31.25;101195.59;4417592;32;20356;-51
2021/04/14 04:13:15;;;;;;;;;;;;;;;17.08;31.45;101188.81;4417107;32;19954;-51
2021/04/14 04:15:41;;;;;;;;;;;;;;;17.08;31.44;101196.72;4418222;32;20325;-52
2021/04/14 04:18:07;;;;;;;;;;;;;;;17.08;31.43;101187.94;4415114;32;19977;-49
2021/04/14 04:20:33;;;;;;;;;;;;;;;17.10;31.41;101186.25;4417907;32;19998;-51
2021/04/14 04:23:00;;;;;;;;;;;;;;;17.03;31.57;101195.66;4417457;32;20014;-52
2021/04/14 04:25:26;;;;;;;;;;;;;;;16.94;31.72;101188.28;4416813;32;19942;-51
2021/04/14 04:27:52;;;;;;;;;;;;;;;17.10;31.46;101187.19;4417203;32;20003;-53
2021/04/14 04:30:18;;;;;;;;;;;;;;;17.16;31.36;101190.88;4415170;32;19961;-54
2021/04/14 04:32:44;;;;;;;;;;;;;;;17.20;31.26;101192.78;4418128;32;19957;-48
2021/04/14 04:35:10;;;;;;;;;;;;;;;17.06;31.46;101193.13;4418130;32;19962;-52
2021/04/14 04:37:36;;;;;;;;;;;;;;;17.07;31.50;101194.94;4414211;32;20271;-53
2021/04/14 04:40:02;;;;;;;;;;;;;;;16.99;31.58;101201.62;4417169;32;20344;-49
2021/04/14 04:42:28;;;;;;;;;;;;;;;17.08;31.43;101199.34;4416910;32;19968;-50
2021/04/14 04:44:53;;;;;;;;;;;;;;;17.10;31.39;101195.06;4416054;32;19996;-51
2021/04/14 04:47:19;;;;;;;;;;;;;;;17.11;31.42;101194.22;4417268;32;20020;-53
2021/04/14 04:49:45;;;;;;;;;;;;;;;17.13;31.32;101189.91;4417835;32;20330;-53
2021/04/14 04:52:11;;;;;;;;;;;;;;;17.12;31.30;101190.75;4415914;32;19942;-49
2021/04/14 04:54:37;;;;;;;;;;;;;;;17.07;31.44;101197.56;4417300;32;19982;-53
2021/04/14 04:57:03;;;;;;;;;;;;;;;17.03;31.53;101197.38;4415903;32;20298;-53
2021/04/14 04:59:29;;;;;;;;;;;;;;;17.11;31.33;101203.84;4416795;32;19954;-50
2021/04/14 05:01:55;;;;;;;;;;;;;;;16.99;31.58;101198.97;4417625;32;19958;-48
2021/04/14 05:04:20;;;;;;;;;;;;;;;17.11;31.38;101204.75;4417009;32;20013;-53
2021/04/14 05:06:46;;;;;;;;;;;;;;;17.11;31.34;101219.63;4417320;32;19998;-51
2021/04/14 05:09:12;;;;;;;;;;;;;;;17.12;31.32;101211.81;4417009;32;20021;-51
2021/04/14 05:11:38;;;;;;;;;;;;;;;17.13;31.27;101220.59;4415699;32;20076;-53
2021/04/14 05:14:04;;;;;;;;;;;;;;;17.17;31.29;101218.97;4415907;32;19964;-50
2021/04/14 05:16:30;;;;;;;;;;;;;;;17.12;31.32;101221.44;4415289;32;20268;-50
2021/04/14 05:18:56;;;;;;;;;;;;;;;17.23;31.21;101220.13;4414060;32;19958;-51
2021/04/14 05:21:22;;;;;;;;;;;;;;;17.16;31.26;101225.97;4416437;32;19954;-53
2021/04/14 05:23:48;;;;;;;;;;;;;;;17.13;31.28;101226.75;4416596;32;20041;-53
2021/04/14 05:26:14;;;;;;;;;;;;;;;17.10;31.37;101229.28;4415273;32;19962;-49
2021/04/14 05:28:40;;;;;;;;;;;;;;;17.04;31.50;101228.12;4410985;32;19954;-52
2021/04/14 05:31:06;;;;;;;;;;;;;;;17.12;31.34;101231.97;4415002;32;19997;-52
2021/04/14 05:33:32;;;;;;;;;;;;;;;17.19;31.20;101233.09;4415059;32;19942;-53
2021/04/14 05:35:58;;;;;;;;;;;;;;;17.22;31.18;101233.22;4414847;32;19973;-51
2021/04/14 05:38:24;;;;;;;;;;;;;;;17.21;31.16;101231.41;4414266;32;19976;-51
2021/04/14 05:40:50;;;;;;;;;;;;;;;17.24;31.12;101239.47;4415295;32;19968;-53
2021/04/14 05:43:16;;;;;;;;;;;;;;;17.14;31.32;101239.09;4414205;32;19950;-50
2021/04/14 05:45:42;;;;;;;;;;;;;;;17.08;31.39;101246.72;4414810;32;20000;-51
2021/04/14 05:48:08;;;;;;;;;;;;;;;17.14;31.32;101246.06;4413276;32;19953;-49
2021/04/14 05:50:34;;;;;;;;;;;;;;;17.24;31.18;101247.34;4415859;32;19984;-51
2021/04/14 05:53:00;;;;;;;;;;;;;;;17.14;31.30;101252.25;4414320;32;19954;-52
2021/04/14 05:55:26;;;;;;;;;;;;;;;17.17;31.30;101250.56;4415318;32;19988;-49
2021/04/14 05:57:52;;;;;;;;;;;;;;;17.17;31.27;101262.00;4407195;32;19962;-48
2021/04/14 06:00:18;;;;;;;;;;;;;;;17.20;31.24;101262.12;4399494;32;19976;-50
2021/04/14 06:02:44;;;;;;;;;;;;;;;17.17;31.30;101261.09;4411999;32;19978;-50
2021/04/14 06:05:10;;;;;;;;;;;;;;;17.13;31.36;101265.34;4415673;32;19969;-51
2021/04/14 06:07:36;;;;;;;;;;;;;;;17.11;31.41;101262.66;4414418;32;20018;-53
2021/04/14 06:10:02;;;;;;;;;;;;;;;17.16;31.33;101267.19;4415462;32;19973;-52
2021/04/14 06:12:28;;;;;;;;;;;;;;;17.12;31.36;101264.44;4415481;32;19970;-52
2021/04/14 06:14:54;;;;;;;;;;;;;;;17.17;31.37;101261.09;4414507;32;19970;-51
2021/04/14 06:17:20;;;;;;;;;;;;;;;17.31;31.11;101259.91;4416993;32;19950;-52
2021/04/14 06:19:46;;;;;;;;;;;;;;;17.26;31.19;101266.72;4417958;32;20029;-52
2021/04/14 06:22:12;;;;;;;;;;;;;;;17.13;31.41;101266.25;4414256;32;19958;-53
2021/04/14 06:24:38;;;;;;;;;;;;;;;17.04;31.56;101272.84;4403166;32;19954;-51
2021/04/14 06:27:06;;;;;;;;;;;;;;;17.14;31.42;101265.41;4402442;32;20248;-50
2021/04/14 06:29:32;;;;;;;;;;;;;;;17.18;31.39;101276.03;4417390;32;19954;-49
2021/04/14 06:31:59;;;;;;;;;;;;;;;17.29;31.16;101277.37;4417296;32;19960;-52
2021/04/14 06:34:26;;;;;;;;;;;;;;;17.28;31.20;101279.12;4416863;32;19957;-52
2021/04/14 06:36:54;;;;;;;;;;;;;;;17.35;31.13;101277.63;4417291;32;20022;-51
2021/04/14 06:39:21;;;;;;;;;;;;;;;17.30;31.18;101286.19;4410289;32;19951;-53
2021/04/14 06:41:58;;;;;;;;;;;;;;;17.25;31.27;101281.63;4417091;32;20339;-52
2021/04/14 06:44:24;;;;;;;;;;;;;;;17.24;31.32;101278.94;4413742;32;19965;-51
2021/04/14 06:46:50;;;;;;;;;;;;;;;17.37;31.11;101281.22;4415071;32;19981;-53
2021/04/14 06:49:16;;;;;;;;;;;;;;;17.36;31.15;101279.44;4401391;32;19958;-50
2021/04/14 06:51:42;;;;;;;;;;;;;;;17.30;31.31;101281.81;4401108;32;19943;-53
2021/04/14 06:54:08;;;;;;;;;;;;;;;17.31;31.33;101280.97;4413629;32;20017;-49
2021/04/14 06:56:34;;;;;;;;;;;;;;;17.42;31.15;101277.00;4416603;32;19961;-53
2021/04/14 06:59:00;;;;;;;;;;;;;;;17.46;31.13;101282.41;4414609;32;19965;-50
2021/04/14 07:01:26;;;;;;;;;;;;;;;17.35;31.43;101276.72;4414153;32;19954;-50
2021/04/14 07:03:52;;;;;;;;;;;;;;;17.25;31.68;101281.63;4416305;32;19969;-51
2021/04/14 07:06:18;;;;;;;;;;;;;;;17.31;31.67;101290.63;4416726;32;19950;-52
2021/04/14 07:08:44;;;;;;;;;;;;;;;17.37;31.59;101283.84;4413787;32;19958;-50
2021/04/14 07:11:10;;;;;;;;;;;;;;;17.24;32.02;101278.94;4415237;32;19965;-50
2021/04/14 07:13:36;;;;;;;;;;;;;;;17.21;32.24;101284.97;4415328;32;20351;-51
2021/04/14 07:16:02;;;;;;;;;;;;;;;17.16;32.11;101285.63;4412331;32;19950;-50
2021/04/14 07:18:28;;;;;;;;;;;;;;;17.30;31.91;101286.19;4413600;32;20369;-51
2021/04/14 07:20:54;;;;;;;;;;;;;;;17.20;32.08;101283.19;4415659;32;19961;-52
2021/04/14 07:23:20;;;;;;;;;;;;;;;17.13;32.44;101281.13;4415189;32;19980;-49
2021/04/14 07:25:46;;;;;;;;;;;;;;;17.02;32.75;101275.44;4416474;32;20286;-51
2021/04/14 07:28:12;;;;;;;;;;;;;;;17.00;32.92;101272.72;4415470;32;20079;-50
2021/04/14 07:30:38;;;;;;;;;;;;;;;17.04;33.33;101279.03;4416488;32;19954;-51
2021/04/14 07:33:04;;;;;;;;;;;;;;;17.03;33.23;101281.59;4417141;32;19964;-50
2021/04/14 07:35:30;;;;;;;;;;;;;;;17.09;33.22;101272.19;4416810;32;20287;-47
2021/04/14 07:37:56;;;;;;;;;;;;;;;17.19;33.12;101280.47;4416335;32;19999;-50
2021/04/14 07:40:22;;;;;;;;;;;;;;;17.16;33.19;101275.09;4415843;32;19968;-49
2021/04/14 07:42:48;;;;;;;;;;;;;;;17.36;32.84;101274.16;4415037;32;19993;-46
2021/04/14 07:45:14;;;;;;;;;;;;;;;17.38;32.92;101266.31;4416347;32;19963;-48
2021/04/14 07:47:40;;;;;;;;;;;;;;;17.45;32.90;101270.06;4415285;32;19980;-52
2021/04/14 07:50:06;;;;;;;;;;;;;;;17.51;32.98;101263.31;4415598;32;19958;-48
2021/04/14 07:52:33;;;;;;;;;;;;;;;17.58;32.93;101264.44;4416346;32;20002;-50
2021/04/14 07:54:59;;;;;;;;;;;;;;;17.67;32.80;101270.06;4415322;32;20320;-51
2021/04/14 07:57:25;;;;;;;;;;;;;;;17.75;32.77;101266.81;4412469;32;19969;-51
2021/04/14 07:59:51;;;;;;;;;;;;;;;17.68;33.15;101263.94;4413481;32;20014;-52
2021/04/14 08:02:16;;;;;;;;;;;;;;;17.72;33.08;101257.06;4414042;32;19977;-51
2021/04/14 08:04:44;;;;;;;;;;;;;;;17.73;33.02;101269.38;4415119;32;19962;-51
2021/04/14 08:07:10;;;;;;;;;;;;;;;17.95;32.64;101264.94;4415669;32;19960;-52
2021/04/14 08:09:36;;;;;;;;;;;;;;;17.96;32.68;101267.63;4414261;32;19957;-51
2021/04/14 08:12:02;;;;;;;;;;;;;;;18.03;32.63;101267.87;4417271;32;19946;-50
2021/04/14 08:14:39;;;;;;;;;;;;;;;18.18;32.49;101263.13;4416711;32;20768;-49
2021/04/14 08:17:05;;;;;;;;;;;;;;;18.28;32.34;101256.47;4414587;32;19955;-49
2021/04/14 08:19:31;;;;;;;;;;;;;;;18.16;32.92;101270.09;4416955;32;20300;-50
2021/04/14 08:21:57;;;;;;;;;;;;;;;18.31;32.61;101255.66;4417283;32;19950;-49
2021/04/14 08:24:23;;;;;;;;;;;;;;;18.40;32.36;101259.53;4415532;32;20064;-47
2021/04/14 08:26:49;;;;;;;;;;;;;;;18.48;32.20;101258.88;4415600;32;20405;-49
2021/04/14 08:29:14;;;;;;;;;;;;;;;18.53;32.16;101266.12;4416560;32;19962;-48
2021/04/14 08:31:47;;;;;;;;;;;;;;;18.44;32.62;101265.78;4416719;32;19954;-49
2021/04/14 08:34:13;;;;;;;;;;;;;;;18.54;32.13;101257.34;4414783;32;19954;-49
2021/04/14 08:36:39;;;;;;;;;;;;;;;18.61;32.04;101257.56;4415811;32;19965;-47
2021/04/14 08:39:05;;;;;;;;;;;;;;;18.61;32.14;101258.47;4415134;32;20279;-47
2021/04/14 08:41:31;;;;;;;;;;;;;;;18.62;32.06;101254.97;4416583;32;19958;-45
2021/04/14 08:43:56;;;;;;;;;;;;;;;18.64;31.93;101260.31;4416459;32;19942;-48
2021/04/14 08:46:22;;;;;;;;;;;;;;;18.51;32.09;101251.97;4416580;32;20036;-49
2021/04/14 08:48:49;;;;;;;;;;;;;;;18.54;32.13;101252.06;4416642;32;19961;-48
2021/04/14 08:51:14;;;;;;;;;;;;;;;18.64;32.00;101253.31;4415895;32;19954;-45
2021/04/14 08:53:40;;;;;;;;;;;;;;;18.67;31.71;101257.78;4416179;32;19992;-49
2021/04/14 08:56:06;;;;;;;;;;;;;;;18.66;31.71;101250.69;4410609;32;20023;-47
2021/04/14 08:58:32;;;;;;;;;;;;;;;18.68;31.66;101244.63;4416237;32;19984;-48
2021/04/14 09:00:58;;;;;;;;;;;;;;;18.73;31.55;101242.16;4415123;32;20373;-51
2021/04/14 09:03:24;;;;;;;;;;;;;;;18.79;31.46;101236.19;4416220;32;20004;-48
2021/04/14 09:05:50;;;;;;;;;;;;;;;18.77;31.45;101243.16;4415952;32;19946;-46
2021/04/14 09:08:17;;;;;;;;;;;;;;;18.74;31.47;101241.31;4415774;32;19950;-52
2021/04/14 09:10:49;;;;;;;;;;;;;;;18.75;31.52;101239.53;4416877;32;20327;-50
2021/04/14 09:13:15;;;;;;;;;;;;;;;18.78;31.41;101240.56;4416960;32;19977;-47
2021/04/14 09:15:41;;;;;;;;;;;;;;;18.79;31.36;101231.78;4416589;32;20554;-49
2021/04/14 09:18:07;;;;;;;;;;;;;;;18.79;31.42;101226.50;4415723;32;20402;-47
2021/04/14 09:20:35;;;;;;;;;;;;;;;18.79;31.38;101233.53;4415738;32;19997;-49
2021/04/14 09:23:01;;;;;;;;;;;;;;;18.87;31.21;101232.03;4416382;32;19962;-51
2021/04/14 09:25:27;;;;;;;;;;;;;;;18.88;31.22;101225.03;4413540;32;19992;-46
2021/04/14 09:27:53;;;;;;;;;;;;;;;18.91;31.21;101230.37;4415898;32;19998;-50
2021/04/14 09:30:19;;;;;;;;;;;;;;;18.88;31.23;101225.03;4415184;32;20318;-50
2021/04/14 09:32:45;;;;;;;;;;;;;;;18.68;31.36;101218.25;4416807;32;19974;-47
2021/04/14 09:35:11;;;;;;;;;;;;;;;18.87;31.17;101223.22;4416117;32;19958;-44
2021/04/14 09:37:36;;;;;;;;;;;;;;;18.73;31.33;101214.88;4415361;32;19968;-50
2021/04/14 09:40:02;;;;;;;;;;;;;;;18.85;31.33;101217.91;4416309;32;20360;-47
2021/04/14 09:42:28;;;;;;;;;;;;;;;18.89;31.13;101216.25;4414783;32;19978;-47
2021/04/14 09:44:55;;;;;;;;;;;;;;;18.89;31.23;101210.97;4414188;32;20057;-51
2021/04/14 09:47:21;;;;;;;;;;;;;;;18.80;31.49;101211.59;4399439;32;19958;-48
2021/04/14 09:49:47;;;;;;;;;;;;;;;18.94;31.26;101217.28;4401330;32;20354;-50
2021/04/14 09:52:13;;;;;;;;;;;;;;;18.98;31.15;101205.09;4402465;32;19965;-47
2021/04/14 09:54:39;;;;;;;;;;;;;;;19.02;31.08;101202.63;4396294;32;19955;-49
2021/04/14 09:57:05;;;;;;;;;;;;;;;19.06;31.03;101207.16;4402366;32;19946;-48
2021/04/14 09:59:31;;;;;;;;;;;;;;;19.09;30.96;101201.06;4404743;32;19943;-47
2021/04/14 10:01:57;;;;;;;;;;;;;;;19.09;30.83;101199.34;4402082;32;20355;-48
2021/04/14 10:04:23;;;;;;;;;;;;;;;19.09;30.87;101194.06;4403533;32;20029;-51
2021/04/14 10:06:49;;;;;;;;;;;;;;;19.14;30.80;101201.22;4402519;32;19980;-49
2021/04/14 10:09:14;;;;;;;;;;;;;;;19.13;30.81;101200.31;4404435;32;19981;-50
2021/04/14 10:11:40;;;;;;;;;;;;;;;19.12;30.65;101182.69;4402513;32;20295;-49
2021/04/14 10:14:07;;;;;;;;;;;;;;;19.16;30.69;101179.31;4403115;32;19934;-51
2021/04/14 10:16:33;;;;;;;;;;;;;;;19.19;30.62;101181.12;4402652;32;19953;-52
2021/04/14 10:18:59;;;;;;;;;;;;;;;19.21;30.65;101182.09;4402637;32;19958;-49
2021/04/14 10:21:25;;;;;;;;;;;;;;;19.24;30.60;101174.25;4402844;32;19959;-48
2021/04/14 10:23:51;;;;;;;;;;;;;;;19.28;30.45;101178.75;4404728;32;19962;-47
2021/04/14 10:26:17;;;;;;;;;;;;;;;19.26;30.53;101174.28;4393934;32;19957;-50
2021/04/14 10:28:42;;;;;;;;;;;;;;;19.23;30.59;101178.63;4402184;32;19994;-49
2021/04/14 10:31:08;;;;;;;;;;;;;;;19.23;30.60;101181.25;4401183;32;20272;-47
2021/04/14 10:33:34;;;;;;;;;;;;;;;19.24;30.55;101167.19;4413938;32;19950;-50
2021/04/14 10:36:00;;;;;;;;;;;;;;;19.23;30.58;101165.41;4419414;32;19972;-50
2021/04/14 10:38:27;;;;;;;;;;;;;;;19.25;30.61;101170.75;4416941;32;19954;-49
2021/04/14 10:40:53;;;;;;;;;;;;;;;19.24;30.46;101166.31;4417812;32;19970;-50
2021/04/14 10:43:20;;;;;;;;;;;;;;;19.21;30.44;101164.47;4419185;32;19954;-50
2021/04/14 10:45:46;;;;;;;;;;;;;;;19.24;30.57;101155.75;4417777;32;19999;-47
2021/04/14 10:48:12;;;;;;;;;;;;;;;19.22;30.57;101162.75;4416388;32;19950;-48
2021/04/14 10:50:38;;;;;;;;;;;;;;;19.24;30.51;101161.03;4418235;32;19990;-50
2021/04/14 10:53:04;;;;;;;;;;;;;;;19.24;30.24;101158.41;4417052;32;19962;-50
2021/04/14 10:55:30;;;;;;;;;;;;;;;19.21;30.31;101155.69;4416992;32;19987;-47
2021/04/14 10:57:56;;;;;;;;;;;;;;;19.21;30.29;101142.47;4417292;32;19954;-52
2021/04/14 11:00:22;;;;;;;;;;;;;;;19.22;30.22;101145.16;4415637;32;19954;-48
2021/04/14 11:02:48;;;;;;;;;;;;;;;19.23;29.98;101140.78;4415580;32;19954;-52
2021/04/14 11:05:14;;;;;;;;;;;;;;;19.16;30.03;101137.06;4416935;32;20406;-51
2021/04/14 11:07:41;;;;;;;;;;;;;;;19.18;29.94;101129.16;4417328;32;19968;-51
2021/04/14 11:10:07;;;;;;;;;;;;;;;19.17;29.91;101127.38;4415104;32;19958;-48
2021/04/14 11:12:33;;;;;;;;;;;;;;;19.19;30.14;101133.59;4415811;32;20364;-51
2021/04/14 11:14:58;;;;;;;;;;;;;;;19.19;30.14;101130.94;4415611;32;20428;-50
2021/04/14 11:17:24;;;;;;;;;;;;;;;19.20;30.10;101124.81;4416502;32;20001;-48
2021/04/14 11:19:50;;;;;;;;;;;;;;;19.15;30.01;101130.00;4415501;32;19950;-48
2021/04/14 11:22:16;;;;;;;;;;;;;;;19.20;30.15;101116.91;4414943;32;20037;-50
2021/04/14 11:24:42;;;;;;;;;;;;;;;19.17;29.90;101124.72;4417238;32;19955;-51
2021/04/14 11:27:08;;;;;;;;;;;;;;;19.20;29.86;101116.91;4416288;32;20352;-49
2021/04/14 11:29:34;;;;;;;;;;;;;;;19.21;29.94;101118.72;4416719;32;19958;-50
2021/04/14 11:32:04;;;;;;;;;;;;;;;19.23;29.90;101111.72;4415963;32;19953;-51
2021/04/14 11:34:30;;;;;;;;;;;;;;;19.19;29.85;101107.19;4417668;32;19961;-52
2021/04/14 11:36:56;;;;;;;;;;;;;;;19.16;29.96;101104.47;4415010;32;19954;-50
2021/04/14 11:39:22;;;;;;;;;;;;;;;19.12;30.00;101108.75;4416272;32;20400;-52
2021/04/14 11:41:47;;;;;;;;;;;;;;;19.14;29.94;101103.53;4416712;32;19989;-50
2021/04/14 11:44:13;;;;;;;;;;;;;;;19.14;29.94;101100.88;4416957;32;19957;-52
2021/04/14 11:46:40;;;;;;;;;;;;;;;19.14;29.91;101098.25;4415539;32;19945;-49
2021/04/14 11:49:06;;;;;;;;;;;;;;;19.17;29.88;101095.69;4414236;32;19973;-52
2021/04/14 11:51:32;;;;;;;;;;;;;;;19.17;29.92;101095.69;4413877;32;19954;-51
2021/04/14 11:53:58;;;;;;;;;;;;;;;19.12;29.98;101092.03;4395522;32;19989;-46
2021/04/14 11:56:24;;;;;;;;;;;;;;;19.14;29.95;101092.97;4397908;32;19994;-50
2021/04/14 11:58:50;;;;;;;;;;;;;;;19.15;30.01;101094.75;4416075;32;20565;-49
2021/04/14 12:01:15;;;;;;;;;;;;;;;19.17;29.93;101090.41;4413370;32;19992;-52
2021/04/14 12:03:43;;;;;;;;;;;;;;;19.13;29.96;101099.09;4414982;32;19961;-50
2021/04/14 12:06:08;;;;;;;;;;;;;;;19.14;30.06;101100.88;4415659;32;19954;-50
2021/04/14 12:08:34;;;;;;;;;;;;;;;19.20;30.03;101091.41;4416692;32;19950;-52
2021/04/14 12:11:00;;;;;;;;;;;;;;;19.24;30.18;101084.47;4414699;32;19950;-49
2021/04/14 12:13:26;;;;;;;;;;;;;;;19.22;29.90;101078.25;4414182;32;19994;-51
2021/04/14 12:15:52;;;;;;;;;;;;;;;19.20;30.09;101090.50;4414121;32;19973;-48
2021/04/14 12:18:18;;;;;;;;;;;;;;;19.22;30.49;101089.69;4414727;32;20006;-50
2021/04/14 12:20:44;;;;;;;;;;;;;;;19.26;29.99;101085.41;4411261;32;19991;-49
2021/04/14 12:23:10;;;;;;;;;;;;;;;19.27;30.06;101086.31;4413770;32;20005;-50
2021/04/14 12:25:36;;;;;;;;;;;;;;;19.39;29.61;101086.66;4415449;32;19957;-47
2021/04/14 12:28:02;;;;;;;;;;;;;;;19.29;29.69;101085.47;4414807;32;19990;-51